Time;durP1;ratioP1;P1;durP2;ratioP2;P2;SDS_P1;SDS_P2;PMS_P1;PMS_P2;Temp;Humidity;BMP_temperature;BMP_pressure;BME280_temperature;BME280_humidity;BME280_pressure;Samples;Min_cycle;Max_cycle;Signal;HPM_P1;HPM_P2
2021/07/14 00:02:08;;;;;;;26.47;24.20;;;;;;;;;;5073534;28;20468;-62
2021/07/14 00:04:36;;;;;;;26.93;24.57;;;;;;;;;;5073236;28;20444;-63
2021/07/14 00:07:03;;;;;;;26.23;24.00;;;;;;;;;;5073019;28;20547;-62
2021/07/14 00:09:30;;;;;;;27.23;24.63;;;;;;;;;;5073115;28;20943;-62
2021/07/14 00:11:58;;;;;;;25.90;23.77;;;;;;;;;;5073039;28;20469;-62
2021/07/14 00:14:35;;;;;;;27.87;25.47;;;;;;;;;;5073814;28;20573;-62
2021/07/14 00:22:47;;;;;;;30.43;27.60;;;;;;;;;;5048230;28;20448;-63
2021/07/14 00:25:14;;;;;;;31.27;28.67;;;;;;;;;;5077058;28;20539;-63
2021/07/14 00:27:44;;;;;;;31.10;28.60;;;;;;;;;;5077281;28;20504;-62
2021/07/14 00:30:22;;;;;;;31.37;28.27;;;;;;;;;;5077740;28;20448;-62
2021/07/14 00:32:49;;;;;;;28.67;25.97;;;;;;;;;;5077449;28;20488;-62
2021/07/14 00:35:16;;;;;;;28.30;25.83;;;;;;;;;;5077148;28;20864;-62
2021/07/14 00:37:44;;;;;;;29.77;26.97;;;;;;;;;;5076810;28;20448;-62
2021/07/14 00:40:12;;;;;;;29.70;27.10;;;;;;;;;;5077066;28;20453;-63
2021/07/14 00:42:40;;;;;;;30.23;27.30;;;;;;;;;;5076937;28;20460;-62
2021/07/14 00:45:07;;;;;;;31.57;28.77;;;;;;;;;;5076934;28;20497;-62
2021/07/14 00:47:37;;;;;;;38.97;26.30;;;;;;;;;;5076586;28;21016;-63
2021/07/14 00:50:06;;;;;;;28.30;25.80;;;;;;;;;;5076830;28;20870;-62
2021/07/14 00:52:33;;;;;;;29.80;27.10;;;;;;;;;;5076385;28;20468;-62
2021/07/14 00:55:00;;;;;;;28.93;25.37;;;;;;;;;;5076726;28;20436;-62
2021/07/14 00:57:29;;;;;;;28.47;25.90;;;;;;;;;;5076760;28;20508;-62
2021/07/14 00:59:56;;;;;;;29.30;26.60;;;;;;;;;;5076765;28;20498;-62
2021/07/14 01:02:25;;;;;;;28.77;26.03;;;;;;;;;;5076628;28;20512;-63
2021/07/14 01:04:57;;;;;;;29.23;26.33;;;;;;;;;;5076507;28;20438;-62
2021/07/14 01:07:25;;;;;;;29.60;27.00;;;;;;;;;;5075972;28;20954;-62
2021/07/14 01:09:55;;;;;;;29.30;26.60;;;;;;;;;;5076348;28;20440;-63
2021/07/14 01:12:26;;;;;;;28.33;25.63;;;;;;;;;;5075982;28;20473;-62
2021/07/14 01:14:56;;;;;;;27.13;24.73;;;;;;;;;;5076063;28;20475;-62
2021/07/14 01:17:25;;;;;;;29.13;26.53;;;;;;;;;;5076241;28;20455;-62
2021/07/14 01:20:09;;;;;;;28.90;26.30;;;;;;;;;;5076180;28;20452;-62
2021/07/14 01:22:42;;;;;;;28.07;25.57;;;;;;;;;;5076137;28;20456;-63
2021/07/14 01:25:13;;;;;;;27.23;24.80;;;;;;;;;;5075828;28;20440;-63
2021/07/14 01:27:43;;;;;;;28.07;25.10;;;;;;;;;;5076232;28;20469;-63
2021/07/14 01:30:14;;;;;;;26.73;24.17;;;;;;;;;;5076081;28;20440;-62
2021/07/14 01:32:42;;;;;;;28.03;25.47;;;;;;;;;;5075831;28;20478;-62
2021/07/14 01:35:12;;;;;;;26.87;24.47;;;;;;;;;;5075155;28;20448;-62
2021/07/14 01:37:39;;;;;;;27.90;25.20;;;;;;;;;;5075856;28;20811;-62
2021/07/14 01:40:08;;;;;;;27.90;25.30;;;;;;;;;;5075842;28;20489;-62
2021/07/14 01:42:36;;;;;;;30.00;27.10;;;;;;;;;;5075533;28;20893;-62
2021/07/14 01:45:06;;;;;;;26.87;24.57;;;;;;;;;;5075481;28;20436;-62
2021/07/14 01:47:34;;;;;;;29.63;26.73;;;;;;;;;;5075678;28;20437;-63
2021/07/14 01:50:02;;;;;;;27.13;24.63;;;;;;;;;;5075416;28;20439;-62
2021/07/14 01:52:30;;;;;;;30.37;27.53;;;;;;;;;;5075595;28;20463;-62
2021/07/14 01:54:59;;;;;;;27.23;24.83;;;;;;;;;;5075577;28;20484;-62
2021/07/14 01:57:28;;;;;;;28.27;25.57;;;;;;;;;;5075308;28;20951;-62
2021/07/14 01:59:56;;;;;;;27.87;25.13;;;;;;;;;;5075347;28;20451;-62
2021/07/14 02:02:27;;;;;;;29.00;26.20;;;;;;;;;;5075300;28;20521;-62
2021/07/14 02:04:55;;;;;;;29.23;26.33;;;;;;;;;;5075332;28;20922;-62
2021/07/14 02:07:25;;;;;;;30.13;27.23;;;;;;;;;;5075345;28;20459;-62
2021/07/14 02:09:52;;;;;;;29.63;26.80;;;;;;;;;;5075957;28;20534;-62
2021/07/14 02:12:20;;;;;;;30.50;27.60;;;;;;;;;;5075655;28;20468;-62
2021/07/14 02:14:49;;;;;;;28.97;26.10;;;;;;;;;;5075381;28;20492;-62
2021/07/14 02:17:18;;;;;;;30.90;27.63;;;;;;;;;;5074969;28;20509;-62
2021/07/14 02:19:49;;;;;;;30.33;27.30;;;;;;;;;;5075066;28;20935;-62
2021/07/14 02:22:17;;;;;;;29.47;26.63;;;;;;;;;;5075366;28;20460;-62
2021/07/14 02:24:44;;;;;;;33.63;28.30;;;;;;;;;;5075167;28;20497;-62
2021/07/14 02:27:11;;;;;;;33.57;28.50;;;;;;;;;;5075560;28;20445;-62
2021/07/14 02:29:39;;;;;;;32.80;26.47;;;;;;;;;;5075318;28;20459;-62
2021/07/14 02:32:07;;;;;;;30.73;27.63;;;;;;;;;;5074951;28;20471;-62
2021/07/14 02:34:35;;;;;;;31.97;29.00;;;;;;;;;;5075033;28;21063;-62
2021/07/14 02:37:07;;;;;;;30.23;27.40;;;;;;;;;;5075582;28;20454;-62
2021/07/14 02:39:35;;;;;;;30.53;27.50;;;;;;;;;;5074552;28;20430;-61
2021/07/14 02:42:06;;;;;;;32.03;28.83;;;;;;;;;;5074484;28;20467;-61
2021/07/14 02:44:39;;;;;;;34.40;29.83;;;;;;;;;;5074459;28;20908;-62
2021/07/14 02:47:07;;;;;;;33.23;29.93;;;;;;;;;;5073605;28;20463;-62
2021/07/14 02:49:38;;;;;;;31.60;28.40;;;;;;;;;;5074566;28;20521;-62
2021/07/14 02:52:07;;;;;;;32.37;29.07;;;;;;;;;;5074306;28;20467;-61
2021/07/14 02:54:35;;;;;;;34.83;31.33;;;;;;;;;;5074482;28;20479;-62
2021/07/14 02:57:03;;;;;;;34.97;31.43;;;;;;;;;;5074473;28;20447;-62
2021/07/14 02:59:32;;;;;;;35.47;31.67;;;;;;;;;;5074095;28;20935;-61
2021/07/14 03:02:00;;;;;;;33.17;29.70;;;;;;;;;;5073919;28;20546;-62
2021/07/14 03:04:29;;;;;;;35.10;31.67;;;;;;;;;;5074629;28;20497;-62
2021/07/14 03:06:57;;;;;;;36.63;32.73;;;;;;;;;;5073967;28;20459;-63
2021/07/14 03:09:36;;;;;;;34.37;30.87;;;;;;;;;;5073903;28;20899;-63
2021/07/14 03:12:04;;;;;;;37.50;33.03;;;;;;;;;;5074290;28;20470;-63
2021/07/14 03:14:32;;;;;;;40.17;35.87;;;;;;;;;;5073625;28;20536;-63
2021/07/14 03:16:59;;;;;;;37.63;33.60;;;;;;;;;;5073670;28;20867;-63
2021/07/14 03:19:27;;;;;;;39.73;35.30;;;;;;;;;;5073749;28;20447;-63
2021/07/14 03:21:55;;;;;;;38.57;33.93;;;;;;;;;;5073499;28;20517;-63
2021/07/14 03:24:23;;;;;;;37.53;33.73;;;;;;;;;;5073918;28;20866;-63
2021/07/14 03:26:52;;;;;;;38.77;34.53;;;;;;;;;;5073551;28;20451;-64
2021/07/14 03:29:19;;;;;;;37.90;33.57;;;;;;;;;;5073350;28;20443;-63
2021/07/14 03:31:47;;;;;;;37.90;34.10;;;;;;;;;;5073241;28;20946;-63
2021/07/14 03:34:15;;;;;;;41.57;36.57;;;;;;;;;;5073631;28;20537;-62
2021/07/14 03:36:43;;;;;;;40.53;35.93;;;;;;;;;;5073611;28;20451;-64
2021/07/14 03:39:10;;;;;;;43.73;34.90;;;;;;;;;;5073611;28;20451;-63
2021/07/14 03:41:39;;;;;;;40.57;36.30;;;;;;;;;;5073249;28;20436;-63
2021/07/14 03:44:08;;;;;;;40.47;35.03;;;;;;;;;;5073631;28;20439;-62
2021/07/14 03:46:36;;;;;;;45.53;36.80;;;;;;;;;;5073523;28;20455;-62
2021/07/14 03:49:03;;;;;;;40.50;35.17;;;;;;;;;;5073514;28;20443;-62
2021/07/14 03:51:31;;;;;;;41.13;36.37;;;;;;;;;;5073376;28;20465;-63
2021/07/14 03:53:59;;;;;;;41.03;34.77;;;;;;;;;;5072888;28;21057;-62
2021/07/14 03:56:26;;;;;;;40.27;36.17;;;;;;;;;;5073383;28;20497;-62
2021/07/14 03:58:55;;;;;;;41.53;35.67;;;;;;;;;;5073020;28;20446;-63
2021/07/14 04:01:24;;;;;;;38.17;34.07;;;;;;;;;;5073061;28;20447;-63
2021/07/14 04:03:52;;;;;;;38.97;34.77;;;;;;;;;;5073679;28;20431;-62
2021/07/14 04:08:22;;;;;;;38.17;34.03;;;;;;;;;;5091614;27;20603;-63
2021/07/14 04:10:49;;;;;;;39.57;35.27;;;;;;;;;;5090883;28;20435;-63
2021/07/14 04:13:16;;;;;;;41.20;36.60;;;;;;;;;;5090929;28;20531;-64
2021/07/14 04:15:44;;;;;;;42.50;36.60;;;;;;;;;;5090613;28;20450;-63
2021/07/14 04:18:12;;;;;;;44.63;37.33;;;;;;;;;;5090768;28;20434;-64
2021/07/14 04:20:40;;;;;;;49.70;36.30;;;;;;;;;;5090831;28;20446;-64
2021/07/14 04:23:07;;;;;;;40.80;34.50;;;;;;;;;;5090351;28;21033;-64
2021/07/14 04:25:36;;;;;;;42.30;36.97;;;;;;;;;;5090549;28;20515;-63
2021/07/14 04:28:03;;;;;;;41.27;35.47;;;;;;;;;;5090326;28;20563;-63
2021/07/14 04:30:31;;;;;;;53.27;37.17;;;;;;;;;;5090294;28;20447;-63
2021/07/14 04:32:58;;;;;;;44.03;37.47;;;;;;;;;;5090865;28;20463;-63
2021/07/14 04:35:25;;;;;;;41.03;36.13;;;;;;;;;;5090531;28;20911;-63
2021/07/14 04:37:52;;;;;;;44.63;38.10;;;;;;;;;;5096248;28;20451;-63
2021/07/14 04:40:22;;;;;;;42.57;37.93;;;;;;;;;;5093362;28;20438;-63
2021/07/14 04:42:51;;;;;;;44.37;36.70;;;;;;;;;;5091442;28;20466;-63
2021/07/14 04:45:18;;;;;;;43.10;37.40;;;;;;;;;;5090973;28;20492;-67
2021/07/14 04:47:46;;;;;;;43.10;35.80;;;;;;;;;;5098659;28;20907;-65
2021/07/14 04:50:13;;;;;;;45.77;36.47;;;;;;;;;;5097004;28;20450;-63
2021/07/14 04:52:40;;;;;;;42.33;37.70;;;;;;;;;;5092638;28;21039;-63
2021/07/14 04:55:08;;;;;;;44.93;38.60;;;;;;;;;;5092341;28;20443;-63
2021/07/14 04:57:36;;;;;;;42.00;37.43;;;;;;;;;;5092105;28;20451;-62
2021/07/14 05:00:06;;;;;;;44.13;38.67;;;;;;;;;;5092306;28;20500;-63
2021/07/14 05:02:33;;;;;;;41.90;36.27;;;;;;;;;;5091060;28;20466;-63
2021/07/14 05:05:01;;;;;;;42.87;37.50;;;;;;;;;;5094454;28;20926;-63
2021/07/14 05:07:29;;;;;;;42.60;36.70;;;;;;;;;;5093248;28;20486;-63
2021/07/14 05:09:57;;;;;;;43.67;38.83;;;;;;;;;;5098193;28;20443;-63
2021/07/14 05:12:24;;;;;;;41.63;37.07;;;;;;;;;;5093356;28;20470;-63
2021/07/14 05:14:51;;;;;;;49.67;36.50;;;;;;;;;;5090345;28;20942;-63
2021/07/14 05:17:20;;;;;;;42.60;38.07;;;;;;;;;;5090242;28;20447;-62
2021/07/14 05:19:47;;;;;;;47.83;39.13;;;;;;;;;;5076691;28;20447;-63
2021/07/14 05:22:15;;;;;;;44.40;38.07;;;;;;;;;;5077027;28;20501;-62
2021/07/14 05:24:42;;;;;;;45.80;40.17;;;;;;;;;;5076434;28;20508;-63
2021/07/14 05:27:09;;;;;;;43.60;37.67;;;;;;;;;;5076208;28;20874;-63
2021/07/14 05:29:36;;;;;;;52.27;39.77;;;;;;;;;;5075654;28;20501;-63
2021/07/14 05:32:04;;;;;;;45.23;39.50;;;;;;;;;;5076144;28;20624;-63
2021/07/14 05:34:33;;;;;;;50.58;42.40;;;;;;;;;;5074977;28;20495;-66
2021/07/14 05:37:00;;;;;;;51.33;41.77;;;;;;;;;;5075395;28;20547;-66
2021/07/14 05:39:27;;;;;;;48.77;40.80;;;;;;;;;;5075844;28;20443;-67
2021/07/14 05:41:55;;;;;;;47.73;40.03;;;;;;;;;;5075683;28;20467;-66
2021/07/14 05:44:22;;;;;;;42.87;37.73;;;;;;;;;;5075804;28;20458;-65
2021/07/14 05:46:50;;;;;;;41.97;37.00;;;;;;;;;;5075700;28;20507;-68
2021/07/14 05:49:17;;;;;;;41.63;36.00;;;;;;;;;;5075753;28;20451;-62
2021/07/14 05:51:46;;;;;;;40.03;36.00;;;;;;;;;;5075681;28;20467;-62
2021/07/14 05:54:13;;;;;;;40.27;35.93;;;;;;;;;;5076866;28;20455;-63
2021/07/14 05:56:41;;;;;;;39.07;34.93;;;;;;;;;;5075705;28;20447;-68
2021/07/14 05:59:08;;;;;;;39.17;35.07;;;;;;;;;;5075932;28;20884;-64
2021/07/14 06:01:37;;;;;;;41.00;35.17;;;;;;;;;;5076000;28;20928;-62
2021/07/14 06:04:04;;;;;;;37.43;33.30;;;;;;;;;;5076308;28;20447;-62
2021/07/14 06:06:32;;;;;;;40.80;35.57;;;;;;;;;;5075441;28;20516;-64
2021/07/14 06:09:00;;;;;;;40.47;36.13;;;;;;;;;;5075577;28;20435;-62
2021/07/14 06:11:28;;;;;;;40.93;36.53;;;;;;;;;;5075298;28;20440;-63
2021/07/14 06:13:55;;;;;;;38.63;34.60;;;;;;;;;;5076013;28;20443;-65
2021/07/14 06:16:22;;;;;;;38.90;34.80;;;;;;;;;;5076018;28;20436;-64
2021/07/14 06:18:50;;;;;;;41.67;36.20;;;;;;;;;;5076418;28;20439;-65
2021/07/14 06:21:17;;;;;;;41.47;36.70;;;;;;;;;;5075531;28;20439;-64
2021/07/14 06:23:44;;;;;;;42.00;37.77;;;;;;;;;;5075461;28;20467;-64
2021/07/14 06:26:13;;;;;;;42.67;38.13;;;;;;;;;;5074814;28;20497;-61
2021/07/14 06:28:40;;;;;;;47.63;41.67;;;;;;;;;;5074012;28;20528;-64
2021/07/14 06:31:07;;;;;;;46.10;41.20;;;;;;;;;;5073882;28;20505;-65
2021/07/14 06:33:37;;;;;;;44.90;38.53;;;;;;;;;;5074584;28;20467;-65
2021/07/14 06:36:05;;;;;;;41.77;37.47;;;;;;;;;;5074419;28;20550;-65
2021/07/14 06:38:33;;;;;;;41.37;37.07;;;;;;;;;;5089883;28;20435;-65
2021/07/14 06:41:00;;;;;;;39.10;35.00;;;;;;;;;;5080300;28;20773;-65
2021/07/14 06:43:41;;;;;;;41.97;37.60;;;;;;;;;;5074706;28;20979;-65
2021/07/14 06:46:08;;;;;;;41.90;37.60;;;;;;;;;;5074861;28;20459;-66
2021/07/14 06:48:35;;;;;;;43.57;38.67;;;;;;;;;;5074981;28;20479;-64
2021/07/14 06:51:03;;;;;;;42.03;37.63;;;;;;;;;;5075045;28;20477;-66
2021/07/14 06:53:30;;;;;;;39.57;35.63;;;;;;;;;;5074850;28;20527;-66
2021/07/14 06:55:58;;;;;;;40.70;36.33;;;;;;;;;;5075337;28;20482;-65
2021/07/14 06:58:25;;;;;;;40.57;36.37;;;;;;;;;;5076004;28;20443;-64
2021/07/14 07:00:54;;;;;;;38.93;35.03;;;;;;;;;;5075688;28;20451;-64
2021/07/14 07:03:21;;;;;;;39.13;35.13;;;;;;;;;;5075071;28;20524;-65
2021/07/14 07:05:49;;;;;;;38.73;34.77;;;;;;;;;;5074158;28;20938;-62
2021/07/14 07:08:16;;;;;;;38.37;34.47;;;;;;;;;;5074355;28;20478;-62
2021/07/14 07:10:45;;;;;;;39.67;35.87;;;;;;;;;;5073913;28;20455;-64
2021/07/14 07:13:15;;;;;;;38.43;34.77;;;;;;;;;;5074363;28;20471;-63
2021/07/14 07:15:43;;;;;;;37.17;33.57;;;;;;;;;;5073891;28;20427;-63
2021/07/14 07:18:11;;;;;;;34.70;31.10;;;;;;;;;;5073972;28;20527;-63
2021/07/14 07:20:39;;;;;;;35.60;32.00;;;;;;;;;;5073687;28;20561;-64
2021/07/14 07:23:06;;;;;;;34.40;31.13;;;;;;;;;;5073601;28;20998;-62
2021/07/14 07:25:34;;;;;;;33.13;29.90;;;;;;;;;;5073877;28;20482;-63
2021/07/14 07:28:03;;;;;;;32.57;29.47;;;;;;;;;;5073827;28;20523;-60
2021/07/14 07:30:30;;;;;;;32.00;28.70;;;;;;;;;;5073463;28;20862;-62
2021/07/14 07:32:58;;;;;;;30.17;27.23;;;;;;;;;;5073477;28;20525;-63
2021/07/14 07:35:26;;;;;;;31.70;28.83;;;;;;;;;;5073718;28;20452;-64
2021/07/14 07:37:54;;;;;;;29.43;26.80;;;;;;;;;;5073589;28;20447;-63
2021/07/14 07:40:21;;;;;;;29.23;26.47;;;;;;;;;;5073598;28;20446;-63
2021/07/14 07:42:49;;;;;;;28.83;26.07;;;;;;;;;;5073008;28;20461;-62
2021/07/14 07:45:16;;;;;;;27.33;24.70;;;;;;;;;;5073112;28;20448;-62
2021/07/14 07:47:44;;;;;;;29.07;26.33;;;;;;;;;;5073727;28;20481;-61
2021/07/14 07:50:12;;;;;;;27.13;24.53;;;;;;;;;;5073591;28;20507;-65
2021/07/14 07:52:40;;;;;;;27.37;24.87;;;;;;;;;;5073629;28;20518;-64
2021/07/14 07:55:09;;;;;;;28.50;25.83;;;;;;;;;;5073681;28;20876;-64
2021/07/14 07:57:37;;;;;;;26.60;24.13;;;;;;;;;;5073244;28;20445;-65
2021/07/14 08:00:05;;;;;;;27.87;25.40;;;;;;;;;;5073486;28;20500;-66
2021/07/14 08:02:32;;;;;;;26.47;23.90;;;;;;;;;;5073482;28;20469;-62
2021/07/14 08:04:59;;;;;;;27.43;24.80;;;;;;;;;;5073675;28;20510;-63
2021/07/14 08:07:27;;;;;;;26.23;23.70;;;;;;;;;;5073070;28;20480;-61
2021/07/14 08:09:55;;;;;;;25.90;23.73;;;;;;;;;;5073619;28;20502;-64
2021/07/14 08:12:23;;;;;;;26.80;24.50;;;;;;;;;;5073290;28;20466;-64
2021/07/14 08:14:50;;;;;;;27.07;24.63;;;;;;;;;;5073238;28;20477;-62
2021/07/14 08:17:17;;;;;;;24.20;21.97;;;;;;;;;;5073140;28;20542;-63
2021/07/14 08:19:44;;;;;;;26.43;24.13;;;;;;;;;;5073506;28;20550;-63
2021/07/14 08:22:12;;;;;;;26.23;23.77;;;;;;;;;;5073290;28;20885;-64
2021/07/14 08:24:39;;;;;;;28.33;25.77;;;;;;;;;;5072975;28;20448;-63
2021/07/14 08:27:08;;;;;;;24.20;22.10;;;;;;;;;;5072841;28;20934;-64
2021/07/14 08:29:35;;;;;;;26.43;23.77;;;;;;;;;;5073218;28;20523;-64
2021/07/14 08:32:03;;;;;;;27.77;25.17;;;;;;;;;;5073096;28;21048;-63
2021/07/14 08:34:30;;;;;;;27.13;24.50;;;;;;;;;;5073053;28;20854;-62
2021/07/14 08:36:58;;;;;;;25.30;22.97;;;;;;;;;;5073306;28;20499;-63
2021/07/14 08:39:26;;;;;;;25.63;23.40;;;;;;;;;;5077323;28;20446;-62
2021/07/14 08:41:54;;;;;;;27.00;24.30;;;;;;;;;;5086028;28;20472;-64
2021/07/14 08:44:24;;;;;;;26.33;23.83;;;;;;;;;;5073836;28;20475;-66
2021/07/14 08:46:52;;;;;;;16.07;14.67;;;;;;;;;;5073107;28;20446;-64
2021/07/14 08:49:19;;;;;;;17.07;15.47;;;;;;;;;;5072856;28;20478;-65
2021/07/14 08:51:47;;;;;;;16.13;14.70;;;;;;;;;;5073113;28;20977;-63
2021/07/14 08:54:14;;;;;;;17.87;16.17;;;;;;;;;;5075182;28;20450;-62
2021/07/14 08:56:41;;;;;;;17.53;15.87;;;;;;;;;;5076560;28;20515;-62
2021/07/14 08:59:10;;;;;;;17.50;16.00;;;;;;;;;;5076870;28;20503;-63
2021/07/14 09:01:39;;;;;;;16.33;14.83;;;;;;;;;;5077315;28;20872;-61
2021/07/14 09:04:07;;;;;;;18.50;16.80;;;;;;;;;;5077683;28;20455;-64
2021/07/14 09:06:34;;;;;;;10.47;9.47;;;;;;;;;;5078193;28;20536;-62
2021/07/14 09:09:02;;;;;;;8.87;8.00;;;;;;;;;;5077480;28;20607;-61
2021/07/14 09:11:29;;;;;;;8.20;7.43;;;;;;;;;;5077267;28;20450;-62
2021/07/14 09:13:56;;;;;;;9.37;7.53;;;;;;;;;;5076621;28;20502;-62
2021/07/14 09:16:34;;;;;;;9.17;8.30;;;;;;;;;;5076575;28;20454;-62
2021/07/14 09:19:14;;;;;;;8.67;7.77;;;;;;;;;;5078173;28;20535;-63
2021/07/14 09:21:42;;;;;;;8.17;7.40;;;;;;;;;;5078195;28;20467;-64
2021/07/14 09:24:28;;;;;;;8.90;8.07;;;;;;;;;;5078984;28;20864;-61
2021/07/14 09:26:56;;;;;;;9.40;8.60;;;;;;;;;;5078937;28;20461;-61
2021/07/14 09:29:24;;;;;;;9.63;8.07;;;;;;;;;;5080188;28;20478;-63
2021/07/14 09:31:51;;;;;;;8.20;7.40;;;;;;;;;;5080265;28;20535;-62
2021/07/14 09:34:30;;;;;;;7.50;6.90;;;;;;;;;;5080978;28;20450;-61
2021/07/14 09:36:58;;;;;;;7.43;6.50;;;;;;;;;;5079683;28;21008;-61
2021/07/14 09:39:36;;;;;;;7.00;6.10;;;;;;;;;;5077971;28;20444;-61
2021/07/14 09:42:04;;;;;;;11.20;10.00;;;;;;;;;;5076956;28;20474;-62
2021/07/14 09:44:31;;;;;;;7.90;6.23;;;;;;;;;;5078877;28;20443;-62
2021/07/14 09:47:18;;;;;;;6.80;6.10;;;;;;;;;;5077517;28;20517;-62
2021/07/14 09:49:47;;;;;;;6.20;5.60;;;;;;;;;;5076494;28;20561;-61
2021/07/14 09:52:15;;;;;;;6.23;5.73;;;;;;;;;;5076735;28;20512;-63
2021/07/14 09:54:43;;;;;;;9.83;7.30;;;;;;;;;;5075981;28;20447;-61
2021/07/14 09:57:14;;;;;;;8.30;6.27;;;;;;;;;;5076048;28;20480;-61
2021/07/14 09:59:42;;;;;;;7.00;6.30;;;;;;;;;;5076823;28;20484;-65
2021/07/14 10:02:12;;;;;;;7.33;6.63;;;;;;;;;;5076019;28;20540;-61
2021/07/14 10:04:40;;;;;;;6.23;5.63;;;;;;;;;;5076020;28;20561;-60
2021/07/14 10:07:10;;;;;;;6.60;5.50;;;;;;;;;;5076266;28;20458;-63
2021/07/14 10:09:37;;;;;;;4.80;4.40;;;;;;;;;;5075822;28;20553;-62
2021/07/14 10:12:23;;;;;;;6.00;4.70;;;;;;;;;;5075047;28;20473;-61
2021/07/14 10:14:50;;;;;;;4.80;4.20;;;;;;;;;;5075082;28;20940;-62
2021/07/14 10:17:36;;;;;;;5.00;4.60;;;;;;;;;;5075113;28;20453;-63
2021/07/14 10:20:24;;;;;;;11.17;4.17;;;;;;;;;;5075428;28;20464;-62
2021/07/14 10:22:53;;;;;;;6.47;4.20;;;;;;;;;;5075715;28;21053;-63
2021/07/14 10:25:20;;;;;;;4.63;3.90;;;;;;;;;;5076124;28;20454;-62
2021/07/14 10:27:48;;;;;;;4.23;3.70;;;;;;;;;;5076745;28;20453;-61
2021/07/14 10:30:17;;;;;;;3.80;3.50;;;;;;;;;;5076745;28;20493;-61
2021/07/14 10:32:44;;;;;;;4.47;4.07;;;;;;;;;;5078069;28;20465;-62
2021/07/14 10:35:14;;;;;;;4.10;3.70;;;;;;;;;;5075648;28;20459;-63
2021/07/14 10:37:42;;;;;;;3.37;3.07;;;;;;;;;;5074767;28;20534;-62
2021/07/14 10:40:11;;;;;;;4.63;3.90;;;;;;;;;;5075053;28;20444;-63
2021/07/14 10:42:38;;;;;;;3.47;3.23;;;;;;;;;;5075148;28;20487;-61
2021/07/14 10:45:06;;;;;;;8.07;4.10;;;;;;;;;;5075115;28;20453;-65
2021/07/14 10:47:34;;;;;;;4.60;3.63;;;;;;;;;;5074617;28;20440;-62
2021/07/14 10:50:01;;;;;;;5.20;4.70;;;;;;;;;;5074489;28;20542;-62
2021/07/14 10:52:28;;;;;;;4.73;4.33;;;;;;;;;;5080168;28;20477;-61
2021/07/14 10:54:56;;;;;;;5.17;4.67;;;;;;;;;;5083278;28;20934;-64
2021/07/14 10:57:25;;;;;;;4.53;4.13;;;;;;;;;;5084020;28;20803;-62
2021/07/14 10:59:52;;;;;;;4.10;3.70;;;;;;;;;;5084465;28;20964;-60
2021/07/14 11:02:38;;;;;;;4.50;4.10;;;;;;;;;;5083225;28;20459;-60
2021/07/14 11:05:06;;;;;;;4.90;4.50;;;;;;;;;;5083606;28;20429;-61
2021/07/14 11:07:37;;;;;;;4.70;4.20;;;;;;;;;;5082449;28;20962;-62
2021/07/14 11:10:23;;;;;;;5.27;4.77;;;;;;;;;;5080398;28;20527;-61
2021/07/14 11:12:52;;;;;;;4.23;3.83;;;;;;;;;;5080298;28;20503;-62
2021/07/14 11:15:29;;;;;;;5.33;4.93;;;;;;;;;;5083694;28;20451;-60
2021/07/14 11:17:56;;;;;;;5.50;5.00;;;;;;;;;;5086939;28;20493;-61
2021/07/14 11:20:23;;;;;;;5.20;4.73;;;;;;;;;;5085455;28;20448;-60
2021/07/14 11:22:55;;;;;;;5.00;4.60;;;;;;;;;;5086661;28;20497;-61
2021/07/14 11:25:26;;;;;;;5.30;4.80;;;;;;;;;;5081351;28;20420;-60
2021/07/14 11:27:55;;;;;;;8.87;6.50;;;;;;;;;;5080423;28;20446;-61
2021/07/14 11:30:27;;;;;;;5.80;5.30;;;;;;;;;;5078402;28;20506;-59
2021/07/14 11:32:55;;;;;;;6.67;6.13;;;;;;;;;;5079273;28;20519;-62
2021/07/14 11:35:24;;;;;;;7.20;6.20;;;;;;;;;;5080579;28;20446;-60
2021/07/14 11:37:56;;;;;;;8.00;7.20;;;;;;;;;;5079661;28;20458;-61
2021/07/14 11:40:36;;;;;;;7.20;6.50;;;;;;;;;;5078216;28;20907;-61
2021/07/14 11:43:14;;;;;;;8.77;7.87;;;;;;;;;;5076257;28;20458;-61
2021/07/14 11:45:42;;;;;;;9.70;8.90;;;;;;;;;;5076538;28;20460;-61
2021/07/14 11:48:10;;;;;;;8.33;7.53;;;;;;;;;;5077267;28;20939;-62
2021/07/14 11:50:49;;;;;;;9.80;8.90;;;;;;;;;;5078549;28;20504;-62
2021/07/14 11:53:37;;;;;;;11.10;8.37;;;;;;;;;;5076894;28;20508;-62
2021/07/14 11:56:05;;;;;;;8.50;7.70;;;;;;;;;;5076685;28;20534;-62
2021/07/14 11:58:53;;;;;;;8.60;7.63;;;;;;;;;;5074555;28;20450;-61
2021/07/14 12:01:39;;;;;;;8.53;7.60;;;;;;;;;;5074989;28;20773;-62
2021/07/14 12:04:09;;;;;;;10.57;9.50;;;;;;;;;;5074742;28;20446;-61
2021/07/14 12:06:40;;;;;;;13.13;10.47;;;;;;;;;;5074524;28;20469;-61
2021/07/14 12:09:22;;;;;;;13.77;12.47;;;;;;;;;;5074628;28;20989;-61
2021/07/14 12:11:49;;;;;;;12.30;11.10;;;;;;;;;;5074777;28;20469;-61
2021/07/14 12:14:18;;;;;;;14.20;13.00;;;;;;;;;;5074514;28;20891;-62
2021/07/14 12:16:46;;;;;;;14.07;12.73;;;;;;;;;;5074793;28;20437;-60
2021/07/14 12:19:13;;;;;;;14.87;13.70;;;;;;;;;;5074171;28;20491;-61
2021/07/14 12:21:41;;;;;;;16.20;14.50;;;;;;;;;;5074492;28;20442;-61
2021/07/14 12:24:26;;;;;;;14.93;13.50;;;;;;;;;;5073760;28;20495;-62
2021/07/14 12:27:04;;;;;;;13.97;12.73;;;;;;;;;;5073750;28;20507;-62
2021/07/14 12:29:33;;;;;;;11.03;9.90;;;;;;;;;;5076744;28;20474;-61
2021/07/14 12:32:01;;;;;;;11.77;10.63;;;;;;;;;;5076947;28;21037;-60
2021/07/14 12:34:30;;;;;;;10.13;9.30;;;;;;;;;;5077020;28;20451;-61
2021/07/14 12:36:57;;;;;;;11.03;9.93;;;;;;;;;;5078376;28;20508;-62
2021/07/14 12:39:26;;;;;;;9.27;8.43;;;;;;;;;;5077758;28;20436;-62
2021/07/14 12:41:54;;;;;;;10.30;9.20;;;;;;;;;;5076887;28;20470;-63
2021/07/14 12:44:21;;;;;;;9.73;8.73;;;;;;;;;;5077329;28;20849;-63
2021/07/14 12:46:50;;;;;;;9.27;8.37;;;;;;;;;;5076932;28;20453;-64
2021/07/14 12:49:18;;;;;;;7.97;7.27;;;;;;;;;;5077476;28;20569;-62
2021/07/14 12:52:02;;;;;;;7.60;7.00;;;;;;;;;;5077028;28;20468;-62
2021/07/14 12:54:29;;;;;;;8.13;7.22;;;;;;;;;;5076511;28;20465;-65
2021/07/14 12:56:57;;;;;;;7.20;6.03;;;;;;;;;;5076913;28;20207;-64
2021/07/14 12:59:25;;;;;;;5.70;5.20;;;;;;;;;;5077557;28;20439;-65
2021/07/14 13:01:54;;;;;;;4.90;4.40;;;;;;;;;;5076751;28;21046;-64
2021/07/14 13:04:21;;;;;;;5.73;5.23;;;;;;;;;;5076495;28;20500;-63
2021/07/14 13:06:48;;;;;;;4.97;4.57;;;;;;;;;;5076534;28;20516;-63
2021/07/14 13:09:16;;;;;;;4.70;4.20;;;;;;;;;;5076847;28;20643;-63
2021/07/14 13:11:46;;;;;;;4.20;3.80;;;;;;;;;;5076269;28;20479;-62
2021/07/14 13:14:13;;;;;;;4.10;3.70;;;;;;;;;;5077195;28;20447;-64
2021/07/14 13:16:42;;;;;;;3.13;2.83;;;;;;;;;;5077784;28;20465;-65
2021/07/14 13:19:20;;;;;;;2.87;2.60;;;;;;;;;;5076388;28;20481;-64
2021/07/14 13:21:58;;;;;;;4.33;3.00;;;;;;;;;;5076615;28;20550;-64
2021/07/14 13:24:29;;;;;;;3.10;2.80;;;;;;;;;;5077084;28;20484;-64
2021/07/14 13:26:57;;;;;;;4.53;3.23;;;;;;;;;;5076522;28;20435;-64
2021/07/14 13:29:25;;;;;;;2.67;2.47;;;;;;;;;;5076328;28;20482;-63
2021/07/14 13:31:53;;;;;;;4.40;2.73;;;;;;;;;;5076027;28;20482;-62
2021/07/14 13:34:22;;;;;;;3.23;2.20;;;;;;;;;;5076362;28;20527;-64
2021/07/14 13:36:50;;;;;;;3.57;2.20;;;;;;;;;;5076078;28;20455;-64
2021/07/14 13:39:18;;;;;;;3.27;2.90;;;;;;;;;;5075267;28;21033;-64
2021/07/14 13:41:46;;;;;;;3.40;1.60;;;;;;;;;;5076276;28;20520;-64
2021/07/14 13:44:14;;;;;;;3.30;1.60;;;;;;;;;;5076059;28;20791;-63
2021/07/14 13:46:45;;;;;;;2.30;1.77;;;;;;;;;;5075936;28;20455;-64
2021/07/14 13:49:21;;;;;;;2.10;1.90;;;;;;;;;;5076133;28;20533;-63
2021/07/14 13:51:55;;;;;;;1.87;1.60;;;;;;;;;;5076491;28;20774;-63
2021/07/14 13:54:24;;;;;;;2.20;1.33;;;;;;;;;;5075456;28;20435;-64
2021/07/14 13:56:52;;;;;;;1.97;1.20;;;;;;;;;;5075568;28;20501;-64
2021/07/14 13:59:20;;;;;;;3.13;1.63;;;;;;;;;;5075776;28;20844;-64
2021/07/14 14:01:54;;;;;;;1.43;1.13;;;;;;;;;;5075214;28;20474;-63
2021/07/14 14:04:22;;;;;;;2.80;1.60;;;;;;;;;;5076353;28;20439;-64
2021/07/14 14:06:49;;;;;;;1.13;1.03;;;;;;;;;;5075942;28;20540;-63
2021/07/14 14:09:18;;;;;;;1.27;1.00;;;;;;;;;;5075716;28;20447;-63
2021/07/14 14:11:46;;;;;;;7.63;6.93;;;;;;;;;;5075909;28;20580;-63
2021/07/14 14:14:13;;;;;;;4.37;3.53;;;;;;;;;;5075318;28;20955;-61
2021/07/14 14:16:41;;;;;;;13.97;12.37;;;;;;;;;;5075204;28;20443;-63
2021/07/14 14:19:08;;;;;;;10.67;9.37;;;;;;;;;;5075318;28;20447;-63
2021/07/14 14:21:35;;;;;;;2.07;1.20;;;;;;;;;;5075740;28;20930;-63
2021/07/14 14:24:07;;;;;;;2.40;0.70;;;;;;;;;;5075147;28;21008;-63
2021/07/14 14:26:35;;;;;;;1.57;0.97;;;;;;;;;;5075298;28;20442;-63
2021/07/14 14:29:03;;;;;;;1.60;0.53;;;;;;;;;;5075446;28;20450;-64
2021/07/14 14:31:30;;;;;;;1.63;1.03;;;;;;;;;;5075054;28;20443;-64
2021/07/14 14:33:57;;;;;;;1.27;0.60;;;;;;;;;;5075138;28;20857;-63
2021/07/14 14:36:24;;;;;;;0.80;0.70;;;;;;;;;;5074763;28;20448;-65
2021/07/14 14:38:52;;;;;;;1.40;1.00;;;;;;;;;;5075142;28;20448;-64
2021/07/14 14:41:19;;;;;;;1.20;1.00;;;;;;;;;;5074935;28;20952;-63
2021/07/14 14:43:47;;;;;;;0.97;0.73;;;;;;;;;;5074515;28;20977;-63
2021/07/14 14:46:15;;;;;;;0.80;0.60;;;;;;;;;;5079842;28;20450;-66